createdAt,value
2022-08-02T00:00:13.251Z,1002.35
2022-08-02T00:01:13.469Z,1002.36
2022-08-02T00:02:14.007Z,1002.33
2022-08-02T00:03:13.246Z,1002.36
2022-08-02T00:04:13.129Z,1002.37
2022-08-02T00:05:13.173Z,1002.38
2022-08-02T00:06:13.061Z,1002.38
2022-08-02T00:07:13.011Z,1002.38
2022-08-02T00:08:13.064Z,1002.44
2022-08-02T00:09:13.359Z,1002.39
2022-08-02T00:10:13.581Z,1002.37
2022-08-02T00:11:13.506Z,1002.38
2022-08-02T00:12:13.725Z,1002.37
2022-08-02T00:13:12.857Z,1002.38
2022-08-02T00:14:13.654Z,1002.37
2022-08-02T00:15:15.959Z,1002.42
2022-08-02T00:16:16.976Z,1002.37
2022-08-02T00:17:13.011Z,1002.39
2022-08-02T00:18:13.301Z,1002.40
2022-08-02T00:19:13.742Z,1002.41
2022-08-02T00:20:14.057Z,1002.42
2022-08-02T00:21:13.267Z,1002.42
2022-08-02T00:22:13.460Z,1002.47
2022-08-02T00:23:13.966Z,1002.49
2022-08-02T00:24:28.512Z,1002.48
2022-08-02T00:25:13.561Z,1002.51
2022-08-02T00:26:13.612Z,1002.48
2022-08-02T00:27:14.641Z,1002.48
2022-08-02T00:28:13.727Z,1002.51
2022-08-02T00:29:13.685Z,1002.50
2022-08-02T00:30:13.650Z,1002.53
2022-08-02T00:31:13.552Z,1002.52
2022-08-02T00:32:13.756Z,1002.51
2022-08-02T00:33:13.979Z,1002.51
2022-08-02T00:34:29.879Z,1002.49
2022-08-02T00:35:13.329Z,1002.53
2022-08-02T00:36:13.199Z,1002.50
2022-08-02T00:37:13.108Z,1002.51
2022-08-02T00:38:12.963Z,1002.50
2022-08-02T00:39:35.210Z,1002.50
2022-08-02T00:40:14.019Z,1002.52
2022-08-02T00:41:13.145Z,1002.48
2022-08-02T00:42:13.796Z,1002.44
2022-08-02T00:43:14.833Z,1002.48
2022-08-02T00:44:13.850Z,1002.45
2022-08-02T00:45:14.278Z,1002.42
2022-08-02T00:46:13.658Z,1002.42
2022-08-02T00:47:19.319Z,1002.39
2022-08-02T00:48:13.602Z,1002.34
2022-08-02T00:49:13.939Z,1002.36
2022-08-02T00:50:13.825Z,1002.35
2022-08-02T00:51:13.754Z,1002.34
2022-08-02T00:52:14.561Z,1002.32
2022-08-02T00:53:13.740Z,1002.33
2022-08-02T00:54:13.927Z,1002.31
2022-08-02T00:55:13.120Z,1002.34
2022-08-02T00:56:13.729Z,1002.31
2022-08-02T00:57:13.781Z,1002.30
2022-08-02T00:58:13.975Z,1002.31
2022-08-02T00:59:13.171Z,1002.34
2022-08-02T01:00:13.135Z,1002.30
2022-08-02T01:01:13.223Z,1002.34
2022-08-02T01:02:13.769Z,1002.37
2022-08-02T01:03:13.125Z,1002.39
2022-08-02T01:04:13.136Z,1002.37
2022-08-02T01:05:13.134Z,1002.36
2022-08-02T01:06:13.160Z,1002.42
2022-08-02T01:07:14.041Z,1002.42
2022-08-02T01:08:13.492Z,1002.44
2022-08-02T01:09:13.850Z,1002.43
2022-08-02T01:10:13.407Z,1002.42
2022-08-02T01:11:13.387Z,1002.41
2022-08-02T01:12:14.042Z,1002.43
2022-08-02T01:13:13.506Z,1002.43
2022-08-02T01:14:13.668Z,1002.46
2022-08-02T01:15:13.646Z,1002.39
2022-08-02T01:16:13.974Z,1002.43
2022-08-02T01:17:13.281Z,1002.41
2022-08-02T01:18:13.346Z,1002.43
2022-08-02T01:19:16.032Z,1002.45
2022-08-02T01:20:13.306Z,1002.45
2022-08-02T01:21:13.448Z,1002.40
2022-08-02T01:22:13.675Z,1002.36
2022-08-02T01:23:13.709Z,1002.35
2022-08-02T01:24:13.711Z,1002.37
2022-08-02T01:25:13.856Z,1002.31
2022-08-02T01:26:13.899Z,1002.29
2022-08-02T01:27:12.964Z,1002.29
2022-08-02T01:28:12.845Z,1002.30
2022-08-02T01:29:13.820Z,1002.29
2022-08-02T01:30:13.878Z,1002.28
2022-08-02T01:31:14.358Z,1002.27
2022-08-02T01:32:14.006Z,1002.24
2022-08-02T01:33:13.615Z,1002.21
2022-08-02T01:34:13.620Z,1002.21
2022-08-02T01:35:13.726Z,1002.20
2022-08-02T01:36:13.722Z,1002.24
2022-08-02T01:37:13.934Z,1002.23
2022-08-02T01:38:13.062Z,1002.21
2022-08-02T01:39:26.951Z,1002.25
2022-08-02T01:40:13.837Z,1002.25
2022-08-02T01:41:13.732Z,1002.25
2022-08-02T01:42:14.325Z,1002.28
2022-08-02T01:43:13.373Z,1002.26
2022-08-02T01:44:13.459Z,1002.27
2022-08-02T01:45:13.320Z,1002.28
2022-08-02T01:46:13.776Z,1002.26
2022-08-02T01:47:14.218Z,1002.23
2022-08-02T01:48:13.363Z,1002.23
2022-08-02T01:49:13.272Z,1002.23
2022-08-02T01:50:13.187Z,1002.24
2022-08-02T01:51:13.207Z,1002.24
2022-08-02T01:52:13.915Z,1002.22
2022-08-02T01:53:13.653Z,1002.20
2022-08-02T01:54:14.111Z,1002.19
2022-08-02T01:55:18.385Z,1002.20
2022-08-02T01:56:13.226Z,1002.15
2022-08-02T01:57:13.260Z,1002.18
2022-08-02T01:58:13.390Z,1002.18
2022-08-02T01:59:13.303Z,1002.17
2022-08-02T02:00:13.376Z,1002.22
2022-08-02T02:01:15.117Z,1002.17
2022-08-02T02:02:15.636Z,1002.15
2022-08-02T02:03:13.961Z,1002.12
2022-08-02T02:04:13.347Z,1002.13
2022-08-02T02:05:13.367Z,1002.15
2022-08-02T02:06:13.451Z,1002.13
2022-08-02T02:07:13.808Z,1002.14
2022-08-02T02:08:13.896Z,1002.15
2022-08-02T02:09:13.635Z,1002.13
2022-08-02T02:10:13.680Z,1002.14
2022-08-02T02:12:09.617Z,1002.13
2022-08-02T02:12:14.954Z,1002.16
2022-08-02T02:13:13.534Z,1002.16
2022-08-02T02:14:13.378Z,1002.15
2022-08-02T02:15:13.240Z,1002.15
2022-08-02T02:16:13.634Z,1002.09
2022-08-02T02:17:52.638Z,1002.05
2022-08-02T02:18:13.982Z,1002.04
2022-08-02T02:19:13.250Z,1002.06
2022-08-02T02:20:13.142Z,1002.07
2022-08-02T02:21:13.201Z,1002.07
2022-08-02T02:22:13.554Z,1002.07
2022-08-02T02:23:14.131Z,1002.04
2022-08-02T02:24:13.093Z,1002.05
2022-08-02T02:25:15.015Z,1002.04
2022-08-02T02:26:13.971Z,1001.98
2022-08-02T02:27:14.552Z,1002.03
2022-08-02T02:28:13.496Z,1002.03
2022-08-02T02:29:13.770Z,1001.99
2022-08-02T02:30:13.870Z,1001.99
2022-08-02T02:31:13.847Z,1002.03
2022-08-02T02:32:14.226Z,1002.02
2022-08-02T02:33:13.566Z,1002.01
2022-08-02T02:34:14.069Z,1002.03
2022-08-02T02:35:13.395Z,1002.02
2022-08-02T02:36:13.460Z,1001.97
2022-08-02T02:37:13.799Z,1001.97
2022-08-02T02:38:14.142Z,1002.00
2022-08-02T02:39:14.006Z,1001.97
2022-08-02T02:40:13.036Z,1001.95
2022-08-02T02:41:13.084Z,1001.95
2022-08-02T02:42:13.921Z,1001.92
2022-08-02T02:43:13.263Z,1001.90
2022-08-02T02:44:13.368Z,1001.92
2022-08-02T02:45:13.340Z,1001.90
2022-08-02T02:46:13.603Z,1001.90
2022-08-02T02:47:13.901Z,1001.90
2022-08-02T02:48:13.499Z,1001.88
2022-08-02T02:49:13.623Z,1001.84
2022-08-02T02:50:13.692Z,1001.85
2022-08-02T02:51:13.978Z,1001.83
2022-08-02T02:52:13.982Z,1001.79
2022-08-02T02:53:13.297Z,1001.82
2022-08-02T02:54:32.904Z,1001.78
2022-08-02T02:55:13.203Z,1001.79
2022-08-02T02:56:13.523Z,1001.74
2022-08-02T02:57:14.003Z,1001.76
2022-08-02T02:58:13.359Z,1001.73
2022-08-02T02:59:13.382Z,1001.72
2022-08-02T03:00:13.846Z,1001.77
2022-08-02T03:01:13.905Z,1001.75
2022-08-02T03:02:13.506Z,1001.70
2022-08-02T03:03:14.081Z,1001.69
2022-08-02T03:04:13.238Z,1001.67
2022-08-02T03:05:13.491Z,1001.66
2022-08-02T03:06:14.767Z,1001.68
2022-08-02T03:07:14.037Z,1001.69
2022-08-02T03:08:13.196Z,1001.67
2022-08-02T03:09:13.142Z,1001.63
2022-08-02T03:10:13.048Z,1001.65
2022-08-02T03:11:13.129Z,1001.63
2022-08-02T03:12:13.691Z,1001.67
2022-08-02T03:13:13.965Z,1001.66
2022-08-02T03:14:14.124Z,1001.70
2022-08-02T03:15:13.160Z,1001.71
2022-08-02T03:16:18.184Z,1001.68
2022-08-02T03:17:13.444Z,1001.72
2022-08-02T03:18:13.365Z,1001.68
2022-08-02T03:19:13.574Z,1001.67
2022-08-02T03:20:13.671Z,1001.73
2022-08-02T03:21:13.797Z,1001.72
2022-08-02T03:22:14.082Z,1001.73
2022-08-02T03:23:13.742Z,1001.71
2022-08-02T03:24:14.284Z,1001.76
2022-08-02T03:25:13.510Z,1001.79
2022-08-02T03:26:13.985Z,1001.78
2022-08-02T03:27:13.214Z,1001.82
2022-08-02T03:28:13.140Z,1001.83
2022-08-02T03:29:13.517Z,1001.82
2022-08-02T03:30:13.688Z,1001.81
2022-08-02T03:31:14.195Z,1001.82
2022-08-02T03:32:13.514Z,1001.78
2022-08-02T03:33:14.343Z,1001.79
2022-08-02T03:34:18.926Z,1001.84
2022-08-02T03:35:14.146Z,1001.81
2022-08-02T03:36:13.360Z,1001.80
2022-08-02T03:37:13.254Z,1001.84
2022-08-02T03:38:13.428Z,1001.82
2022-08-02T03:39:13.703Z,1001.79
2022-08-02T03:40:13.749Z,1001.77
2022-08-02T03:41:14.069Z,1001.75
2022-08-02T03:42:15.538Z,1001.70
2022-08-02T03:43:13.827Z,1001.68
2022-08-02T03:44:13.801Z,1001.64
2022-08-02T03:45:13.982Z,1001.65
2022-08-02T03:46:13.309Z,1001.69
2022-08-02T03:47:13.210Z,1001.66
2022-08-02T03:48:33.663Z,1001.63
2022-08-02T03:49:13.869Z,1001.63
2022-08-02T03:50:12.887Z,1001.59
2022-08-02T03:51:13.100Z,1001.56
2022-08-02T03:52:13.460Z,1001.56
2022-08-02T03:53:19.862Z,1001.53
2022-08-02T03:54:13.146Z,1001.54
2022-08-02T03:55:13.330Z,1001.57
2022-08-02T03:56:13.291Z,1001.54
2022-08-02T03:57:13.327Z,1001.53
2022-08-02T03:58:13.435Z,1001.55
2022-08-02T03:59:13.386Z,1001.55
2022-08-02T04:00:13.921Z,1001.59
2022-08-02T04:01:13.202Z,1001.56
2022-08-02T04:02:13.900Z,1001.57
2022-08-02T04:03:13.351Z,1001.53
2022-08-02T04:04:13.053Z,1001.46
2022-08-02T04:05:13.285Z,1001.50
2022-08-02T04:06:13.307Z,1001.50
2022-08-02T04:07:13.963Z,1001.52
2022-08-02T04:08:35.187Z,1001.56
2022-08-02T04:09:13.849Z,1001.63
2022-08-02T04:10:13.979Z,1001.65
2022-08-02T04:11:13.090Z,1001.68
2022-08-02T04:12:13.291Z,1001.68
2022-08-02T04:13:13.642Z,1001.68
2022-08-02T04:14:13.532Z,1001.71
2022-08-02T04:15:13.831Z,1001.76
2022-08-02T04:16:14.148Z,1001.75
2022-08-02T04:17:13.412Z,1001.73
2022-08-02T04:18:18.625Z,1001.71
2022-08-02T04:19:14.746Z,1001.71
2022-08-02T04:20:13.638Z,1001.68
2022-08-02T04:21:13.783Z,1001.70
2022-08-02T04:22:14.762Z,1001.69
2022-08-02T04:23:14.434Z,1001.71
2022-08-02T04:24:13.535Z,1001.74
2022-08-02T04:25:15.574Z,1001.77
2022-08-02T04:26:14.780Z,1001.77
2022-08-02T04:27:49.171Z,1001.83
2022-08-02T04:28:16.527Z,1001.78
2022-08-02T04:29:13.226Z,1001.77
2022-08-02T04:30:13.303Z,1001.77
2022-08-02T04:31:13.382Z,1001.79
2022-08-02T04:32:13.740Z,1001.79
2022-08-02T04:33:13.453Z,1001.83
2022-08-02T04:34:15.302Z,1001.84
2022-08-02T04:35:20.829Z,1001.84
2022-08-02T04:36:14.176Z,1001.83
2022-08-02T04:37:13.264Z,1001.84
2022-08-02T04:38:13.667Z,1001.85
2022-08-02T04:39:13.657Z,1001.86
2022-08-02T04:40:13.263Z,1001.84
2022-08-02T04:41:13.143Z,1001.87
2022-08-02T04:42:13.422Z,1001.87
2022-08-02T04:43:13.674Z,1001.87
2022-08-02T04:44:13.897Z,1001.87
2022-08-02T04:45:16.553Z,1001.85
2022-08-02T04:46:13.593Z,1001.88
2022-08-02T04:47:13.739Z,1001.87
2022-08-02T04:48:13.649Z,1001.91
2022-08-02T04:49:13.691Z,1001.90
2022-08-02T04:50:13.787Z,1001.91
2022-08-02T04:51:14.185Z,1001.90
2022-08-02T04:52:13.650Z,1001.88
2022-08-02T04:53:13.086Z,1001.84
2022-08-02T04:54:13.068Z,1001.83
2022-08-02T04:55:13.306Z,1001.82
2022-08-02T04:56:13.738Z,1001.83
2022-08-02T04:57:13.872Z,1001.84
2022-08-02T04:58:38.861Z,1001.86
2022-08-02T04:59:13.971Z,1001.81
2022-08-02T05:00:13.039Z,1001.80
2022-08-02T05:01:13.717Z,1001.82
2022-08-02T05:02:14.011Z,1001.81
2022-08-02T05:03:13.472Z,1001.80
2022-08-02T05:04:13.694Z,1001.84
2022-08-02T05:05:13.627Z,1001.80
2022-08-02T05:06:19.404Z,1001.87
2022-08-02T05:07:13.978Z,1001.92
2022-08-02T05:08:13.080Z,1001.91
2022-08-02T05:09:18.194Z,1001.92
2022-08-02T05:10:13.334Z,1001.91
2022-08-02T05:11:13.565Z,1001.93
2022-08-02T05:12:13.925Z,1001.90
2022-08-02T05:13:13.354Z,1001.90
2022-08-02T05:14:13.497Z,1001.92
2022-08-02T05:15:13.639Z,1001.90
2022-08-02T05:16:13.922Z,1001.91
2022-08-02T05:17:12.956Z,1001.93
2022-08-02T05:18:12.969Z,1001.98
2022-08-02T05:19:13.515Z,1001.96
2022-08-02T05:20:18.630Z,1001.94
2022-08-02T05:21:13.688Z,1001.94
2022-08-02T05:22:14.137Z,1001.92
2022-08-02T05:23:13.207Z,1001.88
2022-08-02T05:24:13.225Z,1001.89
2022-08-02T05:25:13.170Z,1001.90
2022-08-02T05:26:13.146Z,1001.92
2022-08-02T05:27:17.334Z,1001.93
2022-08-02T05:28:13.169Z,1001.91
2022-08-02T05:29:13.422Z,1001.91
2022-08-02T05:30:13.472Z,1001.95
2022-08-02T05:31:15.387Z,1001.96
2022-08-02T05:32:13.647Z,1001.93
2022-08-02T05:33:13.811Z,1001.94
2022-08-02T05:34:14.128Z,1001.95
2022-08-02T05:35:13.193Z,1001.96
2022-08-02T05:36:13.448Z,1001.99
2022-08-02T05:37:13.713Z,1001.97
2022-08-02T05:38:13.790Z,1001.96
2022-08-02T05:39:18.594Z,1001.94
2022-08-02T05:40:13.450Z,1001.95
2022-08-02T05:41:13.615Z,1001.97
2022-08-02T05:42:14.086Z,1001.96
2022-08-02T05:43:13.513Z,1002.01
2022-08-02T05:44:13.500Z,1002.01
2022-08-02T05:45:13.541Z,1001.99
2022-08-02T05:46:13.549Z,1002.01
2022-08-02T05:47:13.432Z,1002.02
2022-08-02T05:48:13.558Z,1002.01
2022-08-02T05:49:13.546Z,1002.04
2022-08-02T05:50:13.446Z,1002.02
2022-08-02T05:51:13.747Z,1002.02
2022-08-02T05:52:14.280Z,1002.02
2022-08-02T05:53:13.631Z,1002.01
2022-08-02T05:54:13.742Z,1002.01
2022-08-02T05:55:14.224Z,1002.00
2022-08-02T05:56:13.282Z,1002.01
2022-08-02T05:57:13.376Z,1002.00
2022-08-02T05:58:13.545Z,1001.96
2022-08-02T05:59:13.505Z,1001.97
2022-08-02T06:00:13.412Z,1001.95
2022-08-02T06:01:13.545Z,1001.91
2022-08-02T06:02:14.222Z,1001.88
2022-08-02T06:03:13.599Z,1001.88
2022-08-02T06:04:13.950Z,1001.85
2022-08-02T06:05:13.180Z,1001.86
2022-08-02T06:06:13.316Z,1001.84
2022-08-02T06:07:13.440Z,1001.85
2022-08-02T06:08:13.365Z,1001.81
2022-08-02T06:09:14.374Z,1001.81
2022-08-02T06:10:13.524Z,1001.80
2022-08-02T06:11:13.850Z,1001.85
2022-08-02T06:12:14.056Z,1001.84
2022-08-02T06:13:14.416Z,1001.85
2022-08-02T06:14:14.511Z,1001.86
2022-08-02T06:15:13.447Z,1001.84
2022-08-02T06:16:14.378Z,1001.84
2022-08-02T06:17:13.077Z,1001.83
2022-08-02T06:18:13.230Z,1001.85
2022-08-02T06:19:13.920Z,1001.89
2022-08-02T06:20:13.129Z,1001.90
2022-08-02T06:22:31.882Z,1001.90
2022-08-02T06:22:35.297Z,1001.90
2022-08-02T06:23:13.848Z,1001.88
2022-08-02T06:24:12.998Z,1001.89
2022-08-02T06:25:50.975Z,1001.87
2022-08-02T06:26:13.919Z,1001.88
2022-08-02T06:27:13.231Z,1001.85
2022-08-02T06:28:13.173Z,1001.90
2022-08-02T06:29:13.389Z,1001.86
2022-08-02T06:30:13.316Z,1001.86
2022-08-02T06:31:15.073Z,1001.83
2022-08-02T06:32:13.472Z,1001.81
2022-08-02T06:33:13.757Z,1001.80
2022-08-02T06:34:14.036Z,1001.83
2022-08-02T06:35:13.426Z,1001.84
2022-08-02T06:36:13.595Z,1001.89
2022-08-02T06:37:12.987Z,1001.91
2022-08-02T06:38:13.233Z,1001.92
2022-08-02T06:39:13.466Z,1001.95
2022-08-02T06:40:13.727Z,1001.94
2022-08-02T06:41:14.330Z,1001.92
2022-08-02T06:42:13.756Z,1001.93
2022-08-02T06:43:13.233Z,1001.90
2022-08-02T06:44:45.013Z,1001.85
2022-08-02T06:45:13.518Z,1001.83
2022-08-02T06:47:08.398Z,1001.84
2022-08-02T06:47:13.984Z,1001.81
2022-08-02T06:48:13.551Z,1001.74
2022-08-02T06:49:13.694Z,1001.71
2022-08-02T06:50:13.945Z,1001.70
2022-08-02T06:51:13.376Z,1001.70
2022-08-02T06:52:13.676Z,1001.72
2022-08-02T06:53:13.300Z,1001.72
2022-08-02T06:54:13.575Z,1001.75
2022-08-02T06:55:15.147Z,1001.77
2022-08-02T06:56:13.529Z,1001.82
2022-08-02T06:57:13.458Z,1001.81
2022-08-02T06:58:13.575Z,1001.82
2022-08-02T06:59:13.757Z,1001.83
2022-08-02T07:00:13.857Z,1001.79
2022-08-02T07:01:14.024Z,1001.80
2022-08-02T07:02:13.517Z,1001.80
2022-08-02T07:03:13.807Z,1001.76
2022-08-02T07:04:15.634Z,1001.78
2022-08-02T07:05:13.846Z,1001.83
2022-08-02T07:06:13.915Z,1001.87
2022-08-02T07:07:13.285Z,1001.87
2022-08-02T07:08:13.301Z,1001.87
2022-08-02T07:09:21.581Z,1001.85
2022-08-02T07:10:13.103Z,1001.82
2022-08-02T07:11:13.144Z,1001.81
2022-08-02T07:12:13.476Z,1001.78
2022-08-02T07:13:14.138Z,1001.78
2022-08-02T07:14:13.222Z,1001.81
2022-08-02T07:15:13.381Z,1001.80
2022-08-02T07:16:13.454Z,1001.83
2022-08-02T07:17:13.735Z,1001.82
2022-08-02T07:18:13.646Z,1001.79
2022-08-02T07:19:13.161Z,1001.78
2022-08-02T07:20:13.717Z,1001.74
2022-08-02T07:21:14.024Z,1001.75
2022-08-02T07:22:13.518Z,1001.72
2022-08-02T07:23:13.695Z,1001.73
2022-08-02T07:24:13.697Z,1001.68
2022-08-02T07:25:13.678Z,1001.67
2022-08-02T07:26:13.684Z,1001.68
2022-08-02T07:27:13.953Z,1001.64
2022-08-02T07:28:19.530Z,1001.66
2022-08-02T07:29:13.559Z,1001.72
2022-08-02T07:30:15.215Z,1001.75
2022-08-02T07:31:14.997Z,1001.77
2022-08-02T07:32:15.027Z,1001.73
2022-08-02T07:33:38.703Z,1001.77
2022-08-02T07:34:14.052Z,1001.72
2022-08-02T07:35:13.323Z,1001.77
2022-08-02T07:36:16.844Z,1001.78
2022-08-02T07:37:35.208Z,1001.78
2022-08-02T07:38:13.567Z,1001.78
2022-08-02T07:39:13.128Z,1001.76
2022-08-02T07:40:14.768Z,1001.80
2022-08-02T07:41:13.564Z,1001.78
2022-08-02T07:42:14.288Z,1001.81
2022-08-02T07:43:13.672Z,1001.80
2022-08-02T07:44:13.749Z,1001.81
2022-08-02T07:45:13.920Z,1001.79
2022-08-02T07:46:12.989Z,1001.77
2022-08-02T07:47:14.035Z,1001.78
2022-08-02T07:48:13.880Z,1001.75
2022-08-02T07:49:13.240Z,1001.76
2022-08-02T07:50:13.553Z,1001.80
2022-08-02T07:51:17.210Z,1001.78
2022-08-02T07:52:13.916Z,1001.80
2022-08-02T07:53:13.489Z,1001.84
2022-08-02T07:54:16.944Z,1001.84
2022-08-02T07:55:13.335Z,1001.84
2022-08-02T07:56:13.561Z,1001.84
2022-08-02T07:57:15.157Z,1001.80
2022-08-02T07:58:13.724Z,1001.85
2022-08-02T07:59:13.300Z,1001.81
2022-08-02T08:00:13.721Z,1001.85
2022-08-02T08:01:14.254Z,1001.82
2022-08-02T08:02:13.957Z,1001.82
2022-08-02T08:03:13.369Z,1001.77
2022-08-02T08:04:13.826Z,1001.76
2022-08-02T08:05:13.906Z,1001.73
2022-08-02T08:06:12.942Z,1001.76
2022-08-02T08:07:12.974Z,1001.75
2022-08-02T08:08:17.397Z,1001.74
2022-08-02T08:09:15.763Z,1001.75
2022-08-02T08:10:14.305Z,1001.74
2022-08-02T08:11:13.287Z,1001.75
2022-08-02T08:12:13.854Z,1001.75
2022-08-02T08:13:13.473Z,1001.70
2022-08-02T08:14:16.711Z,1001.70
2022-08-02T08:15:14.157Z,1001.72
2022-08-02T08:16:14.871Z,1001.71
2022-08-02T08:17:12.991Z,1001.78
2022-08-02T08:18:12.998Z,1001.76
2022-08-02T08:19:13.008Z,1001.81
2022-08-02T08:20:15.936Z,1001.78
2022-08-02T08:21:13.399Z,1001.81
2022-08-02T08:22:13.937Z,1001.77
2022-08-02T08:23:13.781Z,1001.73
2022-08-02T08:24:13.807Z,1001.80
2022-08-02T08:25:13.880Z,1001.76
2022-08-02T08:26:15.770Z,1001.76
2022-08-02T08:27:14.766Z,1001.73
2022-08-02T08:28:13.919Z,1001.72
2022-08-02T08:29:12.888Z,1001.69
2022-08-02T08:30:14.240Z,1001.65
2022-08-02T08:31:17.067Z,1001.62
2022-08-02T08:32:18.123Z,1001.58
2022-08-02T08:33:13.829Z,1001.61
2022-08-02T08:34:14.186Z,1001.59
2022-08-02T08:35:13.684Z,1001.61
2022-08-02T08:36:13.904Z,1001.60
2022-08-02T08:37:16.521Z,1001.59
2022-08-02T08:38:13.906Z,1001.58
2022-08-02T08:39:12.924Z,1001.62
2022-08-02T08:40:13.069Z,1001.59
2022-08-02T08:41:15.077Z,1001.60
2022-08-02T08:42:15.110Z,1001.63
2022-08-02T08:43:13.786Z,1001.62
2022-08-02T08:44:13.800Z,1001.65
2022-08-02T08:45:15.417Z,1001.58
2022-08-02T08:46:13.756Z,1001.63
2022-08-02T08:47:13.791Z,1001.59
2022-08-02T08:48:13.796Z,1001.57
2022-08-02T08:49:13.917Z,1001.56
2022-08-02T08:50:20.123Z,1001.60
2022-08-02T08:51:12.971Z,1001.60
2022-08-02T08:52:13.212Z,1001.60
2022-08-02T08:53:13.889Z,1001.60
2022-08-02T08:54:13.472Z,1001.65
2022-08-02T08:55:13.707Z,1001.62
2022-08-02T08:56:16.229Z,1001.62
2022-08-02T08:57:14.142Z,1001.62
2022-08-02T08:58:13.174Z,1001.61
2022-08-02T08:59:13.453Z,1001.61
2022-08-02T09:00:13.561Z,1001.56
2022-08-02T09:01:13.616Z,1001.53
2022-08-02T09:02:20.335Z,1001.57
2022-08-02T09:03:13.579Z,1001.60
2022-08-02T09:04:13.447Z,1001.57
2022-08-02T09:05:13.871Z,1001.58
2022-08-02T09:06:15.358Z,1001.55
2022-08-02T09:07:13.410Z,1001.52
2022-08-02T09:08:16.839Z,1001.54
2022-08-02T09:09:15.033Z,1001.57
2022-08-02T09:10:13.199Z,1001.57
2022-08-02T09:11:13.762Z,1001.52
2022-08-02T09:12:14.702Z,1001.59
2022-08-02T09:13:37.956Z,1001.57
2022-08-02T09:14:15.014Z,1001.48
2022-08-02T09:15:15.926Z,1001.48
2022-08-02T09:16:14.198Z,1001.48
2022-08-02T09:17:14.101Z,1001.44
2022-08-02T09:18:13.080Z,1001.44
2022-08-02T09:19:14.324Z,1001.43
2022-08-02T09:20:13.612Z,1001.42
2022-08-02T09:21:13.887Z,1001.44
2022-08-02T09:22:16.069Z,1001.40
2022-08-02T09:23:13.575Z,1001.36
2022-08-02T09:24:15.067Z,1001.40
2022-08-02T09:25:15.094Z,1001.37
2022-08-02T09:26:14.588Z,1001.36
2022-08-02T09:27:13.946Z,1001.34
2022-08-02T09:28:13.177Z,1001.44
2022-08-02T09:29:13.093Z,1001.37
2022-08-02T09:30:13.954Z,1001.40
2022-08-02T09:31:14.922Z,1001.40
2022-08-02T09:32:13.199Z,1001.42
2022-08-02T09:33:13.615Z,1001.42
2022-08-02T09:34:13.704Z,1001.40
2022-08-02T09:35:13.640Z,1001.38
2022-08-02T09:36:13.661Z,1001.45
2022-08-02T09:37:13.593Z,1001.40
2022-08-02T09:38:13.653Z,1001.44
2022-08-02T09:39:15.327Z,1001.44
2022-08-02T09:40:13.635Z,1001.48
2022-08-02T09:41:13.647Z,1001.49
2022-08-02T09:42:14.856Z,1001.49
2022-08-02T09:43:14.788Z,1001.46
2022-08-02T09:44:16.089Z,1001.50
2022-08-02T09:45:13.713Z,1001.51
2022-08-02T09:46:15.443Z,1001.53
2022-08-02T09:47:14.118Z,1001.54
2022-08-02T09:48:13.615Z,1001.51
2022-08-02T09:49:13.902Z,1001.56
2022-08-02T09:50:15.167Z,1001.55
2022-08-02T09:51:13.718Z,1001.55
2022-08-02T09:52:13.537Z,1001.56
2022-08-02T09:53:13.943Z,1001.59
2022-08-02T09:54:13.318Z,1001.55
2022-08-02T09:55:13.600Z,1001.55
2022-08-02T09:56:35.828Z,1001.47
2022-08-02T09:57:15.309Z,1001.41
2022-08-02T09:58:13.886Z,1001.37
2022-08-02T09:59:13.608Z,1001.50
2022-08-02T10:00:37.048Z,1001.51
2022-08-02T10:01:14.202Z,1001.50
2022-08-02T10:02:14.822Z,1001.49
2022-08-02T10:03:22.066Z,1001.54
2022-08-02T10:04:20.545Z,1001.53
2022-08-02T10:05:15.323Z,1001.56
2022-08-02T10:06:14.430Z,1001.52
2022-08-02T10:07:15.792Z,1001.52
2022-08-02T10:08:15.296Z,1001.52
2022-08-02T10:09:13.281Z,1001.55
2022-08-02T10:10:13.191Z,1001.56
2022-08-02T10:11:14.053Z,1001.49
2022-08-02T10:12:13.458Z,1001.49
2022-08-02T10:13:14.075Z,1001.55
2022-08-02T10:14:13.902Z,1001.55
2022-08-02T10:15:14.404Z,1001.49
2022-08-02T10:16:13.476Z,1001.47
2022-08-02T10:17:13.403Z,1001.48
2022-08-02T10:18:37.137Z,1001.45
2022-08-02T10:19:16.048Z,1001.42
2022-08-02T10:20:14.670Z,1001.39
2022-08-02T10:21:13.631Z,1001.40
2022-08-02T10:22:15.416Z,1001.41
2022-08-02T10:23:15.961Z,1001.39
2022-08-02T10:24:14.476Z,1001.37
2022-08-02T10:25:16.482Z,1001.36
2022-08-02T10:26:13.532Z,1001.37
2022-08-02T10:27:13.638Z,1001.41
2022-08-02T10:28:16.872Z,1001.42
2022-08-02T10:29:13.925Z,1001.43
2022-08-02T10:30:13.221Z,1001.37
2022-08-02T10:31:13.296Z,1001.33
2022-08-02T10:32:15.349Z,1001.41
2022-08-02T10:33:13.183Z,1001.39
2022-08-02T10:34:15.110Z,1001.40
2022-08-02T10:35:19.980Z,1001.43
2022-08-02T10:36:13.495Z,1001.39
2022-08-02T10:37:14.859Z,1001.42
2022-08-02T10:38:13.382Z,1001.39
2022-08-02T10:39:16.052Z,1001.38
2022-08-02T10:40:13.142Z,1001.35
2022-08-02T10:41:13.452Z,1001.36
2022-08-02T10:42:15.605Z,1001.35
2022-08-02T10:43:15.379Z,1001.30
2022-08-02T10:44:24.208Z,1001.34
2022-08-02T10:45:13.356Z,1001.28
2022-08-02T10:46:15.270Z,1001.30
2022-08-02T10:47:15.111Z,1001.32
2022-08-02T10:48:14.267Z,1001.23
2022-08-02T10:49:38.050Z,1001.26
2022-08-02T10:50:14.870Z,1001.23
2022-08-02T10:51:15.852Z,1001.31
2022-08-02T10:52:15.498Z,1001.36
2022-08-02T10:53:15.606Z,1001.35
2022-08-02T10:54:15.333Z,1001.36
2022-08-02T10:55:14.955Z,1001.28
2022-08-02T10:56:15.705Z,1001.31
2022-08-02T10:57:15.303Z,1001.29
2022-08-02T10:58:13.949Z,1001.32
2022-08-02T10:59:12.995Z,1001.33
2022-08-02T11:00:17.179Z,1001.29
2022-08-02T11:01:13.726Z,1001.31
2022-08-02T11:02:16.363Z,1001.31
2022-08-02T11:03:15.668Z,1001.23
2022-08-02T11:04:13.761Z,1001.21
2022-08-02T11:05:15.365Z,1001.20
2022-08-02T11:06:25.941Z,1001.20
2022-08-02T11:07:14.754Z,1001.17
2022-08-02T11:08:16.213Z,1001.22
2022-08-02T11:09:15.684Z,1001.19
2022-08-02T11:10:17.113Z,1001.26
2022-08-02T11:11:17.594Z,1001.21
2022-08-02T11:12:17.572Z,1001.16
2022-08-02T11:13:16.323Z,1001.21
2022-08-02T11:14:17.546Z,1001.16
2022-08-02T11:15:14.431Z,1001.16
2022-08-02T11:16:15.083Z,1001.17
2022-08-02T11:17:17.026Z,1001.14
2022-08-02T11:18:17.579Z,1001.12
2022-08-02T11:19:17.201Z,1001.07
2022-08-02T11:20:15.374Z,1001.14
2022-08-02T11:21:14.608Z,1001.15
2022-08-02T11:22:21.229Z,1001.20
2022-08-02T11:23:13.210Z,1001.16
2022-08-02T11:24:17.840Z,1001.14
2022-08-02T11:25:13.786Z,1001.13
2022-08-02T11:26:18.487Z,1001.13
2022-08-02T11:27:18.559Z,1001.16
2022-08-02T11:28:14.603Z,1001.15
2022-08-02T11:29:16.299Z,1001.15
2022-08-02T11:30:16.816Z,1001.14
2022-08-02T11:31:18.937Z,1001.07
2022-08-02T11:32:18.330Z,1001.13
2022-08-02T11:33:19.085Z,1001.13
2022-08-02T11:34:36.756Z,1001.08
2022-08-02T11:35:18.016Z,1001.10
2022-08-02T11:36:17.792Z,1001.08
2022-08-02T11:37:22.179Z,1001.04
2022-08-02T11:38:18.772Z,1001.04
2022-08-02T11:39:19.908Z,1001.05
2022-08-02T11:40:20.330Z,1001.00
2022-08-02T11:41:47.071Z,1001.02
2022-08-02T11:42:18.538Z,1001.02
2022-08-02T11:43:16.837Z,1001.01
2022-08-02T11:44:19.346Z,1001.03
2022-08-02T11:45:20.810Z,1001.04
2022-08-02T11:46:20.184Z,1001.10
2022-08-02T11:47:15.576Z,1001.08
2022-08-02T11:48:18.355Z,1001.09
2022-08-02T11:49:18.643Z,1001.08
2022-08-02T11:50:18.688Z,1001.01
2022-08-02T11:51:21.084Z,1001.16
2022-08-02T11:52:19.807Z,1001.03
2022-08-02T11:53:19.597Z,1001.01
2022-08-02T11:54:19.197Z,1001.05
2022-08-02T11:55:20.170Z,1001.03
2022-08-02T11:56:21.711Z,1001.08
2022-08-02T11:57:19.799Z,1001.05
2022-08-02T11:58:19.273Z,1001.05
2022-08-02T11:59:20.264Z,1001.06
2022-08-02T12:00:21.440Z,1001.05
2022-08-02T12:01:17.897Z,1000.99
2022-08-02T12:02:23.764Z,1001.00
2022-08-02T12:03:20.055Z,1001.01
2022-08-02T12:04:19.376Z,1001.02
2022-08-02T12:05:19.138Z,1001.03